sensor_id;sensor_type;location;lat;lon;timestamp;pressure;altitude;pressure_sealevel;temperature;humidity
75740;BME280;64357;51.344;6.550;2023-06-26T00:00:36;100782.69;;;23.88;62.12
75740;BME280;64357;51.344;6.550;2023-06-26T00:03:02;100776.53;;;23.86;62.39
75740;BME280;64357;51.344;6.550;2023-06-26T00:05:27;100778.03;;;23.81;62.68
75740;BME280;64357;51.344;6.550;2023-06-26T00:07:53;100783.16;;;23.80;62.91
75740;BME280;64357;51.344;6.550;2023-06-26T00:10:18;100790.69;;;23.74;63.40
75740;BME280;64357;51.344;6.550;2023-06-26T00:12:43;100789.47;;;23.65;63.78
75740;BME280;64357;51.344;6.550;2023-06-26T00:15:09;100769.19;;;23.60;64.04
75740;BME280;64357;51.344;6.550;2023-06-26T00:17:34;100778.66;;;23.58;63.97
75740;BME280;64357;51.344;6.550;2023-06-26T00:20:02;100777.69;;;23.56;64.41
75740;BME280;64357;51.344;6.550;2023-06-26T00:22:28;100785.50;;;23.56;64.71
75740;BME280;64357;51.344;6.550;2023-06-26T00:24:53;100776.38;;;23.46;64.75
75740;BME280;64357;51.344;6.550;2023-06-26T00:27:21;100784.50;;;23.52;64.82
75740;BME280;64357;51.344;6.550;2023-06-26T00:29:46;100771.00;;;23.43;65.12
75740;BME280;64357;51.344;6.550;2023-06-26T00:32:17;100773.56;;;23.41;65.53
75740;BME280;64357;51.344;6.550;2023-06-26T00:34:42;100777.50;;;23.33;65.90
75740;BME280;64357;51.344;6.550;2023-06-26T00:37:11;100767.38;;;23.22;66.48
75740;BME280;64357;51.344;6.550;2023-06-26T00:39:37;100764.66;;;23.19;66.83
75740;BME280;64357;51.344;6.550;2023-06-26T00:42:02;100777.41;;;23.12;67.30
75740;BME280;64357;51.344;6.550;2023-06-26T00:44:30;100778.13;;;23.10;67.31
75740;BME280;64357;51.344;6.550;2023-06-26T00:46:55;100779.41;;;23.00;68.10
75740;BME280;64357;51.344;6.550;2023-06-26T00:49:21;100780.25;;;22.99;68.14
75740;BME280;64357;51.344;6.550;2023-06-26T00:51:47;100770.53;;;22.97;68.39
75740;BME280;64357;51.344;6.550;2023-06-26T00:54:12;100772.72;;;22.87;68.69
75740;BME280;64357;51.344;6.550;2023-06-26T00:56:41;100771.56;;;22.82;68.97
75740;BME280;64357;51.344;6.550;2023-06-26T00:59:09;100777.34;;;22.77;69.26
75740;BME280;64357;51.344;6.550;2023-06-26T01:01:34;100765.59;;;22.67;69.75
75740;BME280;64357;51.344;6.550;2023-06-26T01:04:00;100776.59;;;22.61;69.98
75740;BME280;64357;51.344;6.550;2023-06-26T01:06:27;100775.88;;;22.64;70.13
75740;BME280;64357;51.344;6.550;2023-06-26T01:08:58;100766.94;;;22.59;70.11
75740;BME280;64357;51.344;6.550;2023-06-26T01:11:26;100775.25;;;22.52;70.55
75740;BME280;64357;51.344;6.550;2023-06-26T01:13:52;100769.63;;;22.44;70.66
75740;BME280;64357;51.344;6.550;2023-06-26T01:16:19;100766.78;;;22.40;71.02
75740;BME280;64357;51.344;6.550;2023-06-26T01:18:45;100757.91;;;22.34;71.13
75740;BME280;64357;51.344;6.550;2023-06-26T01:21:12;100770.09;;;22.35;71.47
75740;BME280;64357;51.344;6.550;2023-06-26T01:26:35;100752.78;;;22.20;71.57
75740;BME280;64357;51.344;6.550;2023-06-26T01:29:03;100762.69;;;22.27;71.74
75740;BME280;64357;51.344;6.550;2023-06-26T01:31:30;100753.91;;;22.25;71.68
75740;BME280;64357;51.344;6.550;2023-06-26T01:33:59;100745.94;;;22.22;71.79
75740;BME280;64357;51.344;6.550;2023-06-26T01:36:26;100738.72;;;22.16;71.85
75740;BME280;64357;51.344;6.550;2023-06-26T01:38:52;100733.19;;;22.10;72.02
75740;BME280;64357;51.344;6.550;2023-06-26T01:41:18;100750.69;;;22.13;71.82
75740;BME280;64357;51.344;6.550;2023-06-26T01:49:09;100752.31;;;22.11;71.78
75740;BME280;64357;51.344;6.550;2023-06-26T01:54:42;100770.09;;;22.03;72.52
75740;BME280;64357;51.344;6.550;2023-06-26T01:57:14;100773.25;;;21.97;72.84
75740;BME280;64357;51.344;6.550;2023-06-26T01:59:45;100768.31;;;22.02;72.80
75740;BME280;64357;51.344;6.550;2023-06-26T02:02:11;100770.63;;;22.12;71.81
75740;BME280;64357;51.344;6.550;2023-06-26T02:04:37;100764.63;;;21.98;72.19
75740;BME280;64357;51.344;6.550;2023-06-26T02:07:03;100765.38;;;21.96;72.03
75740;BME280;64357;51.344;6.550;2023-06-26T02:09:28;100750.28;;;21.89;72.46
75740;BME280;64357;51.344;6.550;2023-06-26T02:11:54;100768.16;;;21.99;71.92
75740;BME280;64357;51.344;6.550;2023-06-26T02:14:19;100765.94;;;22.06;71.35
75740;BME280;64357;51.344;6.550;2023-06-26T02:16:47;100783.75;;;22.15;71.48
75740;BME280;64357;51.344;6.550;2023-06-26T02:19:12;100785.06;;;22.23;70.85
75740;BME280;64357;51.344;6.550;2023-06-26T02:21:47;100783.28;;;22.22;70.72
75740;BME280;64357;51.344;6.550;2023-06-26T02:24:14;100783.41;;;22.09;70.76
75740;BME280;64357;51.344;6.550;2023-06-26T02:26:40;100780.34;;;22.16;70.28
75740;BME280;64357;51.344;6.550;2023-06-26T02:29:05;100780.13;;;22.12;70.19
75740;BME280;64357;51.344;6.550;2023-06-26T02:31:33;100780.81;;;22.09;70.20
75740;BME280;64357;51.344;6.550;2023-06-26T02:34:01;100785.91;;;22.22;69.68
75740;BME280;64357;51.344;6.550;2023-06-26T02:36:28;100793.50;;;22.35;69.18
75740;BME280;64357;51.344;6.550;2023-06-26T02:38:56;100799.06;;;22.25;69.54
75740;BME280;64357;51.344;6.550;2023-06-26T02:41:21;100790.72;;;22.32;68.95
75740;BME280;64357;51.344;6.550;2023-06-26T02:43:47;100798.47;;;22.31;68.68
75740;BME280;64357;51.344;6.550;2023-06-26T02:46:12;100804.44;;;22.28;69.24
75740;BME280;64357;51.344;6.550;2023-06-26T02:48:38;100811.81;;;22.21;69.33
75740;BME280;64357;51.344;6.550;2023-06-26T02:51:03;100798.94;;;22.07;69.80
75740;BME280;64357;51.344;6.550;2023-06-26T02:53:28;100811.72;;;22.03;69.92
75740;BME280;64357;51.344;6.550;2023-06-26T02:55:54;100815.00;;;21.99;69.83
75740;BME280;64357;51.344;6.550;2023-06-26T02:58:21;100816.44;;;21.94;70.23
75740;BME280;64357;51.344;6.550;2023-06-26T03:00:47;100824.13;;;21.92;70.52
75740;BME280;64357;51.344;6.550;2023-06-26T03:03:14;100815.88;;;21.83;70.77
75740;BME280;64357;51.344;6.550;2023-06-26T03:05:40;100821.06;;;21.83;71.12
75740;BME280;64357;51.344;6.550;2023-06-26T03:08:07;100816.56;;;21.80;71.39
75740;BME280;64357;51.344;6.550;2023-06-26T03:10:33;100819.03;;;21.77;71.39
75740;BME280;64357;51.344;6.550;2023-06-26T03:13:01;100824.22;;;21.77;71.53
75740;BME280;64357;51.344;6.550;2023-06-26T03:15:28;100814.63;;;21.60;72.44
75740;BME280;64357;51.344;6.550;2023-06-26T03:17:56;100818.44;;;21.67;72.25
75740;BME280;64357;51.344;6.550;2023-06-26T03:20:21;100831.50;;;21.68;72.43
75740;BME280;64357;51.344;6.550;2023-06-26T03:22:47;100827.94;;;21.66;72.32
75740;BME280;64357;51.344;6.550;2023-06-26T03:25:12;100827.63;;;21.60;73.10
75740;BME280;64357;51.344;6.550;2023-06-26T03:27:37;100835.16;;;21.55;73.29
75740;BME280;64357;51.344;6.550;2023-06-26T03:30:04;100846.63;;;21.59;73.92
75740;BME280;64357;51.344;6.550;2023-06-26T03:32:30;100846.44;;;21.56;73.93
75740;BME280;64357;51.344;6.550;2023-06-26T03:34:55;100824.34;;;21.48;74.58
75740;BME280;64357;51.344;6.550;2023-06-26T03:37:23;100847.34;;;21.56;74.38
75740;BME280;64357;51.344;6.550;2023-06-26T03:39:48;100845.41;;;21.52;74.60
75740;BME280;64357;51.344;6.550;2023-06-26T03:42:13;100837.50;;;21.51;74.77
75740;BME280;64357;51.344;6.550;2023-06-26T03:44:39;100841.31;;;21.41;74.98
75740;BME280;64357;51.344;6.550;2023-06-26T03:47:04;100847.41;;;21.42;75.21
75740;BME280;64357;51.344;6.550;2023-06-26T03:49:30;100844.47;;;21.36;75.39
75740;BME280;64357;51.344;6.550;2023-06-26T03:51:55;100855.19;;;21.42;75.74
75740;BME280;64357;51.344;6.550;2023-06-26T03:54:29;100860.81;;;21.49;75.79
75740;BME280;64357;51.344;6.550;2023-06-26T03:56:55;100868.06;;;21.55;75.49
75740;BME280;64357;51.344;6.550;2023-06-26T03:59:21;100862.25;;;21.44;75.96
75740;BME280;64357;51.344;6.550;2023-06-26T04:01:46;100869.22;;;21.45;76.30
75740;BME280;64357;51.344;6.550;2023-06-26T04:04:19;100865.13;;;21.49;76.25
75740;BME280;64357;51.344;6.550;2023-06-26T04:07:02;100870.09;;;21.61;75.90
75740;BME280;64357;51.344;6.550;2023-06-26T04:09:54;100876.41;;;21.49;75.65
75740;BME280;64357;51.344;6.550;2023-06-26T04:12:31;100868.59;;;21.49;75.41
75740;BME280;64357;51.344;6.550;2023-06-26T04:15:09;100873.19;;;21.39;74.81
75740;BME280;64357;51.344;6.550;2023-06-26T04:17:34;100867.75;;;21.19;75.15
75740;BME280;64357;51.344;6.550;2023-06-26T04:20:06;100876.69;;;21.24;74.53
75740;BME280;64357;51.344;6.550;2023-06-26T04:22:51;100877.16;;;21.17;74.59
75740;BME280;64357;51.344;6.550;2023-06-26T04:25:43;100881.47;;;21.17;74.77
75740;BME280;64357;51.344;6.550;2023-06-26T04:28:23;100886.91;;;21.21;74.37
75740;BME280;64357;51.344;6.550;2023-06-26T04:33:30;100880.03;;;21.07;74.83
75740;BME280;64357;51.344;6.550;2023-06-26T04:35:57;100869.63;;;21.07;74.27
75740;BME280;64357;51.344;6.550;2023-06-26T04:38:23;100865.41;;;21.09;74.24
75740;BME280;64357;51.344;6.550;2023-06-26T04:40:51;100886.28;;;21.11;73.61
75740;BME280;64357;51.344;6.550;2023-06-26T04:43:18;100884.13;;;21.03;73.82
75740;BME280;64357;51.344;6.550;2023-06-26T04:45:46;100881.66;;;21.05;73.57
75740;BME280;64357;51.344;6.550;2023-06-26T04:48:14;100883.78;;;21.12;73.48
75740;BME280;64357;51.344;6.550;2023-06-26T04:50:40;100880.09;;;21.09;73.24
75740;BME280;64357;51.344;6.550;2023-06-26T04:53:06;100877.50;;;21.09;73.04
75740;BME280;64357;51.344;6.550;2023-06-26T04:55:31;100898.22;;;21.07;72.66
75740;BME280;64357;51.344;6.550;2023-06-26T04:57:56;100899.63;;;21.02;73.20
75740;BME280;64357;51.344;6.550;2023-06-26T05:00:24;100905.66;;;21.01;73.17
75740;BME280;64357;51.344;6.550;2023-06-26T05:02:50;100905.56;;;20.99;73.37
75740;BME280;64357;51.344;6.550;2023-06-26T05:05:25;100912.25;;;21.11;73.23
75740;BME280;64357;51.344;6.550;2023-06-26T05:07:52;100907.78;;;21.08;72.78
75740;BME280;64357;51.344;6.550;2023-06-26T05:10:18;100922.28;;;21.04;72.96
75740;BME280;64357;51.344;6.550;2023-06-26T05:12:43;100914.50;;;21.19;72.26
75740;BME280;64357;51.344;6.550;2023-06-26T05:15:09;100918.28;;;21.24;72.24
75740;BME280;64357;51.344;6.550;2023-06-26T05:17:34;100930.75;;;21.30;72.06
75740;BME280;64357;51.344;6.550;2023-06-26T05:20:00;100931.97;;;21.07;73.16
75740;BME280;64357;51.344;6.550;2023-06-26T05:22:26;100936.72;;;20.99;73.30
75740;BME280;64357;51.344;6.550;2023-06-26T05:24:55;100944.31;;;20.96;73.48
75740;BME280;64357;51.344;6.550;2023-06-26T05:27:24;100938.78;;;20.90;73.95
75740;BME280;64357;51.344;6.550;2023-06-26T05:29:50;100945.94;;;20.94;73.72
75740;BME280;64357;51.344;6.550;2023-06-26T05:32:16;100943.72;;;21.00;73.67
75740;BME280;64357;51.344;6.550;2023-06-26T05:34:48;100948.78;;;20.99;73.83
75740;BME280;64357;51.344;6.550;2023-06-26T05:37:21;100941.38;;;20.90;73.82
75740;BME280;64357;51.344;6.550;2023-06-26T05:39:47;100949.72;;;21.14;73.09
75740;BME280;64357;51.344;6.550;2023-06-26T05:42:13;100946.31;;;21.00;73.11
75740;BME280;64357;51.344;6.550;2023-06-26T05:44:39;100936.91;;;21.02;73.34
75740;BME280;64357;51.344;6.550;2023-06-26T05:47:04;100950.09;;;21.06;73.25
75740;BME280;64357;51.344;6.550;2023-06-26T05:49:30;100951.78;;;21.05;73.60
75740;BME280;64357;51.344;6.550;2023-06-26T05:51:56;100944.34;;;21.11;73.40
75740;BME280;64357;51.344;6.550;2023-06-26T05:54:24;100947.84;;;21.12;73.45
75740;BME280;64357;51.344;6.550;2023-06-26T05:56:56;100945.88;;;21.08;73.48
75740;BME280;64357;51.344;6.550;2023-06-26T05:59:24;100944.78;;;21.04;74.12
75740;BME280;64357;51.344;6.550;2023-06-26T06:01:58;100951.22;;;20.96;74.72
75740;BME280;64357;51.344;6.550;2023-06-26T06:04:24;100962.50;;;20.96;74.99
75740;BME280;64357;51.344;6.550;2023-06-26T06:06:49;100969.53;;;21.12;74.69
75740;BME280;64357;51.344;6.550;2023-06-26T06:09:17;100958.13;;;20.95;74.85
75740;BME280;64357;51.344;6.550;2023-06-26T06:11:45;100968.78;;;21.00;74.75
75740;BME280;64357;51.344;6.550;2023-06-26T06:14:11;100977.19;;;20.96;75.56
75740;BME280;64357;51.344;6.550;2023-06-26T06:16:39;100983.19;;;20.95;75.77
75740;BME280;64357;51.344;6.550;2023-06-26T06:19:04;100970.06;;;21.07;74.83
75740;BME280;64357;51.344;6.550;2023-06-26T06:21:32;100974.63;;;21.25;74.91
75740;BME280;64357;51.344;6.550;2023-06-26T06:24:00;100983.59;;;21.45;73.74
75740;BME280;64357;51.344;6.550;2023-06-26T06:26:53;100993.75;;;21.41;74.03
75740;BME280;64357;51.344;6.550;2023-06-26T06:29:38;100996.41;;;21.72;72.49
75740;BME280;64357;51.344;6.550;2023-06-26T06:32:23;100964.88;;;21.51;72.90
75740;BME280;64357;51.344;6.550;2023-06-26T06:34:50;100974.47;;;21.52;73.16
75740;BME280;64357;51.344;6.550;2023-06-26T06:37:16;100980.47;;;21.36;73.07
75740;BME280;64357;51.344;6.550;2023-06-26T06:39:41;101007.97;;;21.33;73.93
75740;BME280;64357;51.344;6.550;2023-06-26T06:42:07;101011.53;;;21.20;74.02
75740;BME280;64357;51.344;6.550;2023-06-26T06:44:33;101007.97;;;21.33;73.69
75740;BME280;64357;51.344;6.550;2023-06-26T06:46:58;101037.28;;;21.30;74.46
75740;BME280;64357;51.344;6.550;2023-06-26T06:49:28;101025.38;;;21.34;73.96
75740;BME280;64357;51.344;6.550;2023-06-26T06:51:54;101012.91;;;21.43;73.21
75740;BME280;64357;51.344;6.550;2023-06-26T06:54:19;101019.66;;;21.54;73.57
75740;BME280;64357;51.344;6.550;2023-06-26T06:56:45;100997.69;;;21.49;72.95
75740;BME280;64357;51.344;6.550;2023-06-26T06:59:10;101030.47;;;21.62;73.93
75740;BME280;64357;51.344;6.550;2023-06-26T07:01:36;101028.31;;;21.69;73.44
75740;BME280;64357;51.344;6.550;2023-06-26T07:04:04;101014.16;;;21.79;73.41
75740;BME280;64357;51.344;6.550;2023-06-26T07:06:30;101039.22;;;22.08;72.37
75740;BME280;64357;51.344;6.550;2023-06-26T07:08:58;101030.06;;;22.46;70.07
75740;BME280;64357;51.344;6.550;2023-06-26T07:11:28;101043.16;;;22.95;68.45
75740;BME280;64357;51.344;6.550;2023-06-26T07:13:54;101038.81;;;23.11;67.97
75740;BME280;64357;51.344;6.550;2023-06-26T07:16:22;101015.94;;;22.90;67.41
75740;BME280;64357;51.344;6.550;2023-06-26T07:18:50;101041.56;;;23.14;66.73
75740;BME280;64357;51.344;6.550;2023-06-26T07:21:18;101025.47;;;23.05;66.51
75740;BME280;64357;51.344;6.550;2023-06-26T07:23:43;101049.09;;;23.42;65.23
75740;BME280;64357;51.344;6.550;2023-06-26T07:26:14;101038.81;;;23.11;65.93
75740;BME280;64357;51.344;6.550;2023-06-26T07:28:39;101046.53;;;23.26;65.34
75740;BME280;64357;51.344;6.550;2023-06-26T07:31:08;101050.34;;;22.84;66.76
75740;BME280;64357;51.344;6.550;2023-06-26T07:33:33;101055.22;;;22.61;68.17
75740;BME280;64357;51.344;6.550;2023-06-26T07:35:58;101064.56;;;22.42;69.26
75740;BME280;64357;51.344;6.550;2023-06-26T07:38:29;101048.19;;;22.44;69.07
75740;BME280;64357;51.344;6.550;2023-06-26T07:40:54;101053.81;;;22.99;67.18
75740;BME280;64357;51.344;6.550;2023-06-26T07:43:19;101066.88;;;23.84;64.19
75740;BME280;64357;51.344;6.550;2023-06-26T07:45:48;101073.13;;;23.53;64.44
75740;BME280;64357;51.344;6.550;2023-06-26T07:48:13;101053.75;;;23.48;64.35
75740;BME280;64357;51.344;6.550;2023-06-26T07:50:39;101069.06;;;23.92;63.45
75740;BME280;64357;51.344;6.550;2023-06-26T07:53:04;101089.56;;;23.68;64.29
75740;BME280;64357;51.344;6.550;2023-06-26T07:55:31;101081.91;;;23.05;66.03
75740;BME280;64357;51.344;6.550;2023-06-26T07:57:59;101088.09;;;23.23;65.08
75740;BME280;64357;51.344;6.550;2023-06-26T08:00:26;101086.56;;;23.10;65.42
75740;BME280;64357;51.344;6.550;2023-06-26T08:02:51;101108.44;;;22.98;65.37
75740;BME280;64357;51.344;6.550;2023-06-26T08:05:19;101101.38;;;22.80;65.32
75740;BME280;64357;51.344;6.550;2023-06-26T08:07:44;101097.25;;;22.37;66.98
75740;BME280;64357;51.344;6.550;2023-06-26T08:10:12;101084.56;;;22.43;66.44
75740;BME280;64357;51.344;6.550;2023-06-26T08:12:39;101105.25;;;22.56;65.41
75740;BME280;64357;51.344;6.550;2023-06-26T08:15:11;101106.00;;;22.39;66.65
75740;BME280;64357;51.344;6.550;2023-06-26T08:17:39;101110.91;;;22.80;65.25
75740;BME280;64357;51.344;6.550;2023-06-26T08:20:05;101100.72;;;22.52;65.81
75740;BME280;64357;51.344;6.550;2023-06-26T08:22:33;101114.31;;;22.79;65.16
75740;BME280;64357;51.344;6.550;2023-06-26T08:25:02;101111.16;;;22.99;64.11
75740;BME280;64357;51.344;6.550;2023-06-26T08:27:28;101116.00;;;22.62;65.78
75740;BME280;64357;51.344;6.550;2023-06-26T08:29:53;101120.94;;;22.41;67.08
75740;BME280;64357;51.344;6.550;2023-06-26T08:32:26;101108.44;;;22.98;64.81
75740;BME280;64357;51.344;6.550;2023-06-26T08:34:51;101126.84;;;23.01;64.85
75740;BME280;64357;51.344;6.550;2023-06-26T08:37:20;101126.75;;;23.99;61.08
75740;BME280;64357;51.344;6.550;2023-06-26T08:39:45;101134.72;;;24.36;59.15
75740;BME280;64357;51.344;6.550;2023-06-26T08:42:11;101121.25;;;25.20;56.47
75740;BME280;64357;51.344;6.550;2023-06-26T08:44:36;101105.13;;;24.55;56.83
75740;BME280;64357;51.344;6.550;2023-06-26T08:47:04;101132.81;;;25.06;55.99
75740;BME280;64357;51.344;6.550;2023-06-26T08:49:48;101129.44;;;24.00;59.87
75740;BME280;64357;51.344;6.550;2023-06-26T08:52:34;101132.91;;;23.83;60.98
75740;BME280;64357;51.344;6.550;2023-06-26T08:55:02;101130.13;;;24.32;58.53
75740;BME280;64357;51.344;6.550;2023-06-26T08:57:33;101123.41;;;24.55;57.38
75740;BME280;64357;51.344;6.550;2023-06-26T08:59:59;101140.19;;;24.78;56.96
75740;BME280;64357;51.344;6.550;2023-06-26T09:02:25;101129.19;;;25.41;55.38
75740;BME280;64357;51.344;6.550;2023-06-26T09:04:50;101136.19;;;25.42;55.38
75740;BME280;64357;51.344;6.550;2023-06-26T09:07:17;101118.03;;;25.45;55.01
75740;BME280;64357;51.344;6.550;2023-06-26T09:09:45;101115.41;;;25.26;55.38
75740;BME280;64357;51.344;6.550;2023-06-26T09:12:12;101120.69;;;26.29;52.57
75740;BME280;64357;51.344;6.550;2023-06-26T09:14:38;101137.34;;;27.19;49.82
75740;BME280;64357;51.344;6.550;2023-06-26T09:17:06;101135.13;;;26.40;51.34
75740;BME280;64357;51.344;6.550;2023-06-26T09:19:34;101128.31;;;27.11;49.93
75740;BME280;64357;51.344;6.550;2023-06-26T09:22:00;101133.94;;;27.70;47.34
75740;BME280;64357;51.344;6.550;2023-06-26T09:24:28;101142.22;;;28.07;47.04
75740;BME280;64357;51.344;6.550;2023-06-26T09:26:54;101134.31;;;26.41;50.88
75740;BME280;64357;51.344;6.550;2023-06-26T09:29:25;101146.59;;;26.42;51.34
75740;BME280;64357;51.344;6.550;2023-06-26T09:31:52;101151.56;;;25.15;55.83
75740;BME280;64357;51.344;6.550;2023-06-26T09:34:20;101152.28;;;25.71;54.41
75740;BME280;64357;51.344;6.550;2023-06-26T09:36:45;101152.78;;;26.23;51.24
75740;BME280;64357;51.344;6.550;2023-06-26T09:39:14;101147.00;;;26.53;50.08
75740;BME280;64357;51.344;6.550;2023-06-26T09:41:43;101147.50;;;26.65;49.41
75740;BME280;64357;51.344;6.550;2023-06-26T09:44:14;101133.13;;;24.94;54.10
75740;BME280;64357;51.344;6.550;2023-06-26T09:46:40;101152.75;;;26.02;51.49
75740;BME280;64357;51.344;6.550;2023-06-26T09:49:09;101152.53;;;24.44;53.72
75740;BME280;64357;51.344;6.550;2023-06-26T09:51:37;101149.88;;;24.09;55.47
75740;BME280;64357;51.344;6.550;2023-06-26T09:54:04;101161.25;;;25.18;52.19
75740;BME280;64357;51.344;6.550;2023-06-26T09:56:32;101160.47;;;25.78;51.42
75740;BME280;64357;51.344;6.550;2023-06-26T09:59:02;101159.88;;;27.14;48.44
75740;BME280;64357;51.344;6.550;2023-06-26T10:01:43;101163.28;;;27.59;46.44
75740;BME280;64357;51.344;6.550;2023-06-26T10:04:10;101151.56;;;27.26;45.75
75740;BME280;64357;51.344;6.550;2023-06-26T10:06:45;101153.56;;;26.42;47.27
75740;BME280;64357;51.344;6.550;2023-06-26T10:09:12;101149.81;;;26.57;47.45
75740;BME280;64357;51.344;6.550;2023-06-26T10:11:57;101158.97;;;26.25;47.28
75740;BME280;64357;51.344;6.550;2023-06-26T10:14:26;101160.13;;;26.75;46.82
75740;BME280;64357;51.344;6.550;2023-06-26T10:16:52;101158.16;;;26.70;46.48
75740;BME280;64357;51.344;6.550;2023-06-26T10:19:27;101173.19;;;25.90;49.06
75740;BME280;64357;51.344;6.550;2023-06-26T10:21:54;101170.59;;;25.13;48.73
75740;BME280;64357;51.344;6.550;2023-06-26T10:24:28;101179.03;;;26.25;46.00
75740;BME280;64357;51.344;6.550;2023-06-26T10:29:44;101179.28;;;26.31;46.98
75740;BME280;64357;51.344;6.550;2023-06-26T10:32:12;101191.66;;;26.35;45.78
75740;BME280;64357;51.344;6.550;2023-06-26T10:34:47;101159.78;;;25.44;47.02
75740;BME280;64357;51.344;6.550;2023-06-26T10:37:13;101144.09;;;26.03;46.07
75740;BME280;64357;51.344;6.550;2023-06-26T10:39:51;101157.56;;;25.92;45.92
75740;BME280;64357;51.344;6.550;2023-06-26T10:42:34;101174.09;;;25.13;46.09
75740;BME280;64357;51.344;6.550;2023-06-26T10:45:19;101185.13;;;25.06;44.72
75740;BME280;64357;51.344;6.550;2023-06-26T10:47:54;101158.94;;;26.45;41.93
75740;BME280;64357;51.344;6.550;2023-06-26T10:50:28;101169.56;;;27.15;39.70
75740;BME280;64357;51.344;6.550;2023-06-26T10:55:51;101174.00;;;26.73;40.40
75740;BME280;64357;51.344;6.550;2023-06-26T10:58:33;101205.22;;;26.89;38.62
75740;BME280;64357;51.344;6.550;2023-06-26T11:01:20;101215.19;;;26.98;39.30
75740;BME280;64357;51.344;6.550;2023-06-26T11:04:07;101212.00;;;26.84;38.63
75740;BME280;64357;51.344;6.550;2023-06-26T11:06:39;101225.47;;;26.50;38.46
75740;BME280;64357;51.344;6.550;2023-06-26T11:14:18;101211.78;;;25.94;37.97
75740;BME280;64357;51.344;6.550;2023-06-26T11:16:43;101210.59;;;25.49;38.43
75740;BME280;64357;51.344;6.550;2023-06-26T11:19:09;101211.81;;;26.15;38.09
75740;BME280;64357;51.344;6.550;2023-06-26T11:21:39;101222.31;;;26.57;37.91
75740;BME280;64357;51.344;6.550;2023-06-26T11:24:07;101230.50;;;25.45;40.27
75740;BME280;64357;51.344;6.550;2023-06-26T11:26:43;101234.44;;;25.94;40.12
75740;BME280;64357;51.344;6.550;2023-06-26T11:29:12;101230.16;;;26.79;37.68
75740;BME280;64357;51.344;6.550;2023-06-26T11:31:39;101230.56;;;26.45;36.52
75740;BME280;64357;51.344;6.550;2023-06-26T11:34:08;101234.22;;;25.89;38.71
75740;BME280;64357;51.344;6.550;2023-06-26T11:36:38;101220.94;;;26.67;36.95
75740;BME280;64357;51.344;6.550;2023-06-26T11:39:06;101226.91;;;26.85;34.32
75740;BME280;64357;51.344;6.550;2023-06-26T11:41:36;101226.53;;;26.13;32.06
75740;BME280;64357;51.344;6.550;2023-06-26T11:44:02;101231.63;;;25.89;32.83
75740;BME280;64357;51.344;6.550;2023-06-26T11:46:27;101245.38;;;25.46;33.97
75740;BME280;64357;51.344;6.550;2023-06-26T11:48:56;101247.97;;;24.91;36.97
75740;BME280;64357;51.344;6.550;2023-06-26T11:51:21;101250.72;;;25.30;36.92
75740;BME280;64357;51.344;6.550;2023-06-26T11:53:49;101232.91;;;25.21;37.04
75740;BME280;64357;51.344;6.550;2023-06-26T11:56:17;101257.50;;;25.07;36.04
75740;BME280;64357;51.344;6.550;2023-06-26T12:01:32;101250.78;;;26.49;32.50
75740;BME280;64357;51.344;6.550;2023-06-26T12:04:04;101255.66;;;26.21;33.31
75740;BME280;64357;51.344;6.550;2023-06-26T12:06:32;101251.59;;;26.90;31.96
75740;BME280;64357;51.344;6.550;2023-06-26T12:09:00;101259.31;;;27.08;32.53
75740;BME280;64357;51.344;6.550;2023-06-26T12:11:27;101257.38;;;27.71;31.92
75740;BME280;64357;51.344;6.550;2023-06-26T12:13:56;101256.63;;;27.06;32.08
75740;BME280;64357;51.344;6.550;2023-06-26T12:16:24;101257.28;;;27.46;31.55
75740;BME280;64357;51.344;6.550;2023-06-26T12:18:50;101274.81;;;27.47;31.50
75740;BME280;64357;51.344;6.550;2023-06-26T12:21:45;101268.50;;;27.42;32.08
75740;BME280;64357;51.344;6.550;2023-06-26T12:24:19;101285.16;;;27.88;31.10
75740;BME280;64357;51.344;6.550;2023-06-26T12:26:55;101278.88;;;26.52;32.56
75740;BME280;64357;51.344;6.550;2023-06-26T12:29:29;101288.66;;;26.16;32.52
75740;BME280;64357;51.344;6.550;2023-06-26T12:31:56;101289.41;;;25.94;33.75
75740;BME280;64357;51.344;6.550;2023-06-26T12:34:31;101277.69;;;26.05;32.55
75740;BME280;64357;51.344;6.550;2023-06-26T12:37:04;101304.91;;;26.09;33.61
75740;BME280;64357;51.344;6.550;2023-06-26T12:39:51;101283.41;;;25.58;33.76
75740;BME280;64357;51.344;6.550;2023-06-26T12:42:21;101268.16;;;25.49;33.63
75740;BME280;64357;51.344;6.550;2023-06-26T12:44:50;101294.97;;;25.25;34.29
75740;BME280;64357;51.344;6.550;2023-06-26T12:47:16;101296.38;;;25.37;34.31
75740;BME280;64357;51.344;6.550;2023-06-26T12:49:50;101294.06;;;25.25;35.09
75740;BME280;64357;51.344;6.550;2023-06-26T12:52:18;101291.31;;;25.22;35.48
75740;BME280;64357;51.344;6.550;2023-06-26T12:54:45;101288.47;;;25.55;35.38
75740;BME280;64357;51.344;6.550;2023-06-26T12:57:12;101307.75;;;25.19;35.66
75740;BME280;64357;51.344;6.550;2023-06-26T12:59:42;101291.09;;;25.55;34.82
75740;BME280;64357;51.344;6.550;2023-06-26T13:02:09;101306.28;;;25.07;36.23
75740;BME280;64357;51.344;6.550;2023-06-26T13:04:36;101301.66;;;25.03;36.49
75740;BME280;64357;51.344;6.550;2023-06-26T13:07:06;101300.00;;;25.97;35.10
75740;BME280;64357;51.344;6.550;2023-06-26T13:09:35;101290.19;;;25.54;34.39
75740;BME280;64357;51.344;6.550;2023-06-26T13:12:08;101291.53;;;25.64;34.46
75740;BME280;64357;51.344;6.550;2023-06-26T13:14:39;101301.91;;;25.25;33.94
75740;BME280;64357;51.344;6.550;2023-06-26T13:17:14;101300.03;;;24.69;33.86
75740;BME280;64357;51.344;6.550;2023-06-26T13:19:45;101301.81;;;24.70;34.11
75740;BME280;64357;51.344;6.550;2023-06-26T13:22:11;101305.19;;;25.03;32.21
75740;BME280;64357;51.344;6.550;2023-06-26T13:24:36;101305.72;;;25.14;31.86